GQPA

Atar International Airport

Atar, Mauritania
METAR GQPA 171800Z 02012KT 7000 NSC 24/M02 Q1016
Observed Flight Rules
Jan-17 @ 18:00 UTC (20 hours ago) Marginal Visual Flight Rules
Wind Visibility Clouds
20° at 12 knots 7,001 meters
  • Clear skies
Temperatures Readings
Current 24°C / 75°F
Dewpoint -2°C / 28°F
Humidity 18%
Altimeter 30" Hg
Pressure 1015.92 hPa
Elevation 224
METAR GQPA 171800Z 02012KT 7000 NSC 24/M02 Q1016
Observed Flight Rules
Jan-17 @ 18:00 UTC
(20 hours ago)
MVFR
Wind Visibility
20° at 12 knots 7,001 meters
Clouds
  • Clear skies
Temperature Dewpoint
24°C / 75°F -2°C / 28°F
Humidity Altimeter Pressure
18% 30" Hg 1015.92 hPa